Time;durP1;ratioP1;P1;durP2;ratioP2;P2;SDS_P1;SDS_P2;PMS_P1;PMS_P2;Temp;Humidity;BMP_temperature;BMP_pressure;BME280_temperature;BME280_humidity;BME280_pressure;Samples;Min_cycle;Max_cycle;Signal;HPM_P1;HPM_P2
2023/06/16 00:01:02;;;;;;;7.68;5.47;;;;;;;19.32;55.17;98943.56;4998900;28;20037;-80
2023/06/16 00:03:28;;;;;;;6.35;5.18;;;;;;;19.23;55.11;98942.69;4977848;28;20046;-80
2023/06/16 00:05:55;;;;;;;6.28;4.45;;;;;;;19.21;55.88;98944.91;4995828;28;20596;-80
2023/06/16 00:08:21;;;;;;;5.43;4.93;;;;;;;19.15;55.99;98951.50;4990381;28;20032;-80
2023/06/16 00:10:46;;;;;;;6.63;4.97;;;;;;;19.17;55.96;98946.59;5000163;28;20053;-80
2023/06/16 00:13:12;;;;;;;5.75;4.75;;;;;;;19.04;55.98;98941.19;5004430;28;20108;-80
2023/06/16 00:15:37;;;;;;;11.50;5.32;;;;;;;18.91;56.25;98948.22;4993745;28;20033;-80
2023/06/16 00:18:03;;;;;;;10.93;5.20;;;;;;;19.03;55.88;98937.69;4991974;28;21380;-80
2023/06/16 00:20:29;;;;;;;11.70;5.63;;;;;;;18.86;56.60;98950.19;4977141;28;21920;-80
2023/06/16 00:22:57;;;;;;;6.55;5.72;;;;;;;18.87;56.52;98941.78;4998260;28;20044;-80
2023/06/16 00:25:23;;;;;;;8.25;6.22;;;;;;;18.85;56.46;98937.78;5007021;28;20033;-80
2023/06/16 00:27:48;;;;;;;6.95;4.35;;;;;;;18.90;56.33;98930.38;5003810;28;20033;-80
2023/06/16 00:30:14;;;;;;;6.13;4.90;;;;;;;18.59;57.29;98935.53;5000000;28;20045;-80
2023/06/16 00:32:40;;;;;;;6.95;4.88;;;;;;;18.84;56.48;98947.00;4984942;28;20481;-80
2023/06/16 00:35:05;;;;;;;5.05;4.55;;;;;;;18.82;57.26;98933.78;5002109;28;20041;-80
2023/06/16 00:37:31;;;;;;;8.25;5.53;;;;;;;18.79;56.73;98933.56;5002513;28;20128;-80
2023/06/16 00:39:57;;;;;;;8.00;5.40;;;;;;;18.75;57.08;98922.53;5004795;28;20418;-80
2023/06/16 00:42:22;;;;;;;7.43;5.60;;;;;;;18.61;56.96;98919.00;5003018;28;20164;-80
2023/06/16 00:44:47;;;;;;;5.82;5.22;;;;;;;18.66;57.55;98932.44;5004280;28;20045;-80
2023/06/16 00:47:13;;;;;;;6.57;5.85;;;;;;;18.64;56.91;98926.53;5005617;28;20093;-80
2023/06/16 00:49:39;;;;;;;7.05;5.38;;;;;;;18.47;57.30;98926.31;5002838;28;20026;-80
2023/06/16 00:52:07;;;;;;;6.18;5.53;;;;;;;18.49;57.29;98930.34;5008726;28;20032;-80
2023/06/16 00:54:33;;;;;;;7.82;4.78;;;;;;;18.31;57.73;98927.63;4993330;28;20495;-80
2023/06/16 00:56:59;;;;;;;6.10;5.45;;;;;;;18.33;57.41;98914.63;4990364;28;20123;-80
2023/06/16 00:59:26;;;;;;;7.22;5.22;;;;;;;18.31;57.34;98928.44;4973916;28;20046;-80
2023/06/16 01:01:54;;;;;;;11.02;6.07;;;;;;;17.82;58.88;98928.19;4991032;28;20055;-80
2023/06/16 01:04:20;;;;;;;10.50;5.90;;;;;;;17.65;59.10;98919.78;4992578;28;20038;-80
2023/06/16 01:06:49;;;;;;;10.48;5.78;;;;;;;17.01;61.43;98933.84;4991225;28;21416;-80
2023/06/16 01:09:23;;;;;;;9.90;5.95;;;;;;;16.85;61.77;98924.31;4989374;28;20030;-80
2023/06/16 01:12:10;;;;;;;9.48;6.60;;;;;;;17.05;60.72;98929.47;4995192;28;20026;-79
2023/06/16 01:14:57;;;;;;;6.35;5.03;;;;;;;17.43;60.17;98938.44;4996111;28;20034;-80
2023/06/16 01:17:23;;;;;;;12.23;5.70;;;;;;;18.00;58.97;98932.75;5001120;28;20042;-80
2023/06/16 01:19:57;;;;;;;7.22;5.22;;;;;;;18.12;58.45;98921.47;4990912;28;20040;-80
2023/06/16 01:22:57;;;;;;;9.05;5.80;;;;;;;18.14;58.28;98927.38;4991898;28;20534;-80
2023/06/16 01:25:28;;;;;;;6.93;5.65;;;;;;;18.07;57.53;98932.38;4989714;28;20639;-80
2023/06/16 01:27:54;;;;;;;8.15;6.15;;;;;;;18.11;57.98;98920.69;4988908;28;20394;-80
2023/06/16 01:30:22;;;;;;;8.20;5.45;;;;;;;18.13;58.13;98923.09;4991102;28;20037;-80
2023/06/16 01:32:53;;;;;;;5.10;4.60;;;;;;;18.11;57.81;98914.50;4992077;28;20042;-80
2023/06/16 01:35:20;;;;;;;8.23;5.95;;;;;;;18.05;57.95;98926.47;5005025;28;20026;-80
2023/06/16 01:37:50;;;;;;;9.05;5.55;;;;;;;18.11;58.00;98923.38;4991435;28;20038;-80
2023/06/16 01:40:16;;;;;;;5.97;5.15;;;;;;;17.98;57.92;98926.84;4976775;28;20149;-80
2023/06/16 01:42:44;;;;;;;5.93;5.13;;;;;;;17.91;58.13;98921.00;4990298;28;20112;-80
2023/06/16 01:45:10;;;;;;;7.35;6.30;;;;;;;17.94;58.22;98920.41;4992489;28;20091;-80
2023/06/16 01:47:36;;;;;;;7.18;4.97;;;;;;;17.89;58.15;98920.50;5006084;28;20110;-80
2023/06/16 01:50:01;;;;;;;8.50;5.65;;;;;;;17.83;58.84;98917.06;4990350;28;20033;-80
2023/06/16 01:52:27;;;;;;;7.28;5.57;;;;;;;17.21;60.17;98923.59;4991961;28;20054;-80
2023/06/16 01:54:52;;;;;;;6.47;5.70;;;;;;;17.53;59.12;98925.63;4991523;28;20073;-80
2023/06/16 01:57:18;;;;;;;6.88;4.75;;;;;;;17.70;58.35;98928.63;4980435;28;20033;-80
2023/06/16 01:59:44;;;;;;;9.70;4.93;;;;;;;17.78;58.42;98924.44;4999549;28;20044;-80
2023/06/16 02:02:16;;;;;;;5.85;5.25;;;;;;;17.59;58.82;98907.44;5004529;28;21178;-80
2023/06/16 02:04:45;;;;;;;12.93;5.35;;;;;;;17.69;58.64;98912.72;5010974;28;20062;-80
2023/06/16 02:07:20;;;;;;;6.95;5.90;;;;;;;17.70;58.74;98923.22;5004548;28;20413;-80
2023/06/16 02:09:48;;;;;;;6.63;5.82;;;;;;;17.72;58.44;98921.03;5004238;28;20429;-80
2023/06/16 02:12:13;;;;;;;8.15;5.50;;;;;;;17.66;58.69;98916.81;5003432;28;20045;-79
2023/06/16 02:14:40;;;;;;;6.38;5.50;;;;;;;17.66;58.46;98910.59;4985145;28;20626;-80
2023/06/16 02:17:08;;;;;;;7.75;6.00;;;;;;;17.60;58.83;98912.59;5001455;28;20034;-80
2023/06/16 02:19:33;;;;;;;8.98;5.97;;;;;;;17.53;59.05;98917.53;5004363;28;20033;-80
2023/06/16 02:22:00;;;;;;;8.75;5.80;;;;;;;17.45;59.04;98907.34;4997501;28;20084;-80
2023/06/16 02:24:25;;;;;;;9.18;5.53;;;;;;;17.63;58.90;98911.97;5004706;28;20030;-80
2023/06/16 02:26:51;;;;;;;9.15;6.05;;;;;;;17.54;58.65;98905.63;4994819;28;20029;-80
2023/06/16 02:29:16;;;;;;;8.65;5.55;;;;;;;17.56;59.03;98918.84;5000354;28;20039;-80
2023/06/16 02:31:49;;;;;;;6.80;4.88;;;;;;;17.44;58.99;98913.84;5001410;28;20549;-80
2023/06/16 02:34:15;;;;;;;9.18;5.82;;;;;;;17.44;59.33;98913.03;5003141;28;20053;-80
2023/06/16 02:36:41;;;;;;;5.75;5.10;;;;;;;17.50;58.61;98907.31;4994519;28;20125;-80
2023/06/16 02:39:07;;;;;;;9.20;5.38;;;;;;;17.39;59.01;98905.81;4996158;28;20026;-80
2023/06/16 02:41:33;;;;;;;8.63;6.07;;;;;;;17.41;59.08;98900.94;4990712;28;20041;-79
2023/06/16 02:43:59;;;;;;;9.35;5.30;;;;;;;17.41;58.70;98905.53;4990479;28;20121;-79
2023/06/16 02:46:24;;;;;;;5.85;5.20;;;;;;;17.23;59.58;98893.66;5007588;28;20038;-79
2023/06/16 02:48:50;;;;;;;8.93;5.80;;;;;;;17.35;59.71;98914.78;5005882;28;20107;-79
2023/06/16 02:51:15;;;;;;;6.40;5.32;;;;;;;17.37;59.51;98918.78;5001566;28;20030;-80
2023/06/16 02:53:41;;;;;;;10.40;5.25;;;;;;;17.36;59.85;98919.91;4994335;28;20045;-79
2023/06/16 02:56:07;;;;;;;6.18;5.30;;;;;;;17.39;59.27;98924.69;4987799;28;20113;-80
2023/06/16 02:58:32;;;;;;;9.23;5.55;;;;;;;17.40;59.63;98926.31;4992484;28;20034;-80
2023/06/16 03:00:58;;;;;;;8.85;5.68;;;;;;;17.28;60.02;98917.06;4992048;28;20711;-80
2023/06/16 03:03:25;;;;;;;6.28;5.65;;;;;;;17.41;59.54;98924.44;4976344;28;20092;-81
2023/06/16 03:05:50;;;;;;;7.68;5.55;;;;;;;17.08;60.28;98921.59;5002324;28;20104;-80
2023/06/16 03:08:16;;;;;;;5.82;5.18;;;;;;;17.22;59.78;98913.59;4988200;28;20329;-80
2023/06/16 03:10:41;;;;;;;10.68;7.13;;;;;;;16.08;62.99;98918.03;4971220;28;20069;-80
2023/06/16 03:13:07;;;;;;;10.30;5.68;;;;;;;17.02;60.85;98924.63;4986961;28;20145;-80
2023/06/16 03:15:32;;;;;;;7.82;5.32;;;;;;;17.23;60.36;98928.72;4989381;28;20033;-80
2023/06/16 03:17:57;;;;;;;8.48;5.53;;;;;;;17.17;60.30;98919.06;4986545;28;20038;-80
2023/06/16 03:20:23;;;;;;;7.95;5.53;;;;;;;16.95;61.19;98926.91;4988199;28;20026;-80
2023/06/16 03:22:48;;;;;;;8.43;5.70;;;;;;;17.32;60.27;98929.66;5000595;28;20073;-79
2023/06/16 03:25:15;;;;;;;11.50;5.82;;;;;;;17.16;60.67;98922.84;4989384;28;20109;-79
2023/06/16 03:27:41;;;;;;;8.02;5.55;;;;;;;17.01;61.57;98939.22;4988385;28;20038;-79
2023/06/16 03:30:08;;;;;;;7.47;6.05;;;;;;;17.29;60.96;98932.13;4991284;28;20543;-80
2023/06/16 03:32:34;;;;;;;6.95;5.40;;;;;;;17.42;60.80;98932.22;4992193;28;20033;-80
2023/06/16 03:35:02;;;;;;;7.05;5.53;;;;;;;17.44;60.20;98923.84;4990884;28;20163;-80
2023/06/16 03:37:27;;;;;;;7.80;5.60;;;;;;;17.45;60.26;98931.63;4974205;28;20049;-80
2023/06/16 03:39:53;;;;;;;10.93;6.20;;;;;;;17.38;61.02;98936.59;4996910;28;20494;-80
2023/06/16 03:42:18;;;;;;;5.78;5.28;;;;;;;17.36;60.66;98919.91;4993470;28;20040;-80
2023/06/16 03:44:44;;;;;;;8.75;5.80;;;;;;;17.42;60.69;98929.53;4992201;28;20175;-80
2023/06/16 03:47:09;;;;;;;8.75;6.03;;;;;;;17.34;60.98;98938.28;4990930;28;20032;-79
2023/06/16 03:49:34;;;;;;;8.38;5.82;;;;;;;17.34;61.25;98937.47;4990685;28;20069;-80
2023/06/16 03:52:00;;;;;;;7.88;6.30;;;;;;;17.03;62.15;98926.25;5000875;28;20030;-80
2023/06/16 03:54:26;;;;;;;8.27;5.53;;;;;;;17.23;60.55;98929.50;4984466;28;20030;-80
2023/06/16 03:56:52;;;;;;;8.52;5.90;;;;;;;17.23;61.46;98934.88;5008980;28;20121;-80
2023/06/16 03:59:20;;;;;;;8.40;5.30;;;;;;;17.50;60.63;98928.91;5003608;28;20491;-79
2023/06/16 04:01:46;;;;;;;7.05;6.07;;;;;;;17.49;60.97;98935.38;4984388;28;20841;-80
2023/06/16 04:04:12;;;;;;;7.20;5.30;;;;;;;17.51;61.27;98938.63;4974293;28;20413;-80
2023/06/16 04:06:37;;;;;;;7.95;5.22;;;;;;;17.60;60.87;98939.56;4993126;28;20030;-80
2023/06/16 04:09:03;;;;;;;10.25;5.75;;;;;;;17.63;61.11;98943.56;4988046;28;20034;-80
2023/06/16 04:11:30;;;;;;;7.57;5.13;;;;;;;17.74;60.42;98945.84;4988641;28;20064;-80
2023/06/16 04:13:55;;;;;;;8.80;5.13;;;;;;;17.69;60.77;98942.41;4990976;28;20044;-80
2023/06/16 04:16:21;;;;;;;8.23;6.07;;;;;;;17.67;60.84;98940.00;4992467;28;20030;-80
2023/06/16 04:18:48;;;;;;;7.15;6.07;;;;;;;17.69;60.84;98945.91;4991847;28;20030;-80
2023/06/16 04:21:14;;;;;;;5.97;5.32;;;;;;;17.73;60.41;98951.53;5014612;28;20076;-81
2023/06/16 04:23:40;;;;;;;7.38;6.60;;;;;;;17.49;61.35;98942.66;5004545;28;20127;-81
2023/06/16 04:26:07;;;;;;;8.90;5.25;;;;;;;17.30;62.73;98933.75;4993146;28;20445;-81
2023/06/16 04:28:32;;;;;;;5.90;5.30;;;;;;;17.45;62.64;98947.03;5003366;28;20084;-80
2023/06/16 04:31:00;;;;;;;8.32;5.30;;;;;;;17.66;60.83;98938.41;4985029;28;20034;-81
2023/06/16 04:33:26;;;;;;;12.52;5.93;;;;;;;17.34;64.40;98942.88;4993849;28;20030;-80
2023/06/16 04:35:52;;;;;;;8.80;6.38;;;;;;;17.14;64.69;98946.63;5012976;28;20079;-79
2023/06/16 04:38:19;;;;;;;7.80;5.85;;;;;;;16.97;64.96;98938.19;5008284;28;20033;-81
2023/06/16 04:40:45;;;;;;;7.63;6.25;;;;;;;16.82;65.35;98941.84;5019042;28;20026;-81
2023/06/16 04:43:10;;;;;;;10.23;6.03;;;;;;;17.07;65.05;98936.19;4992883;28;20086;-81
2023/06/16 04:45:35;;;;;;;9.88;6.47;;;;;;;17.29;63.45;98942.94;4990024;28;20322;-80
2023/06/16 04:48:01;;;;;;;13.32;6.85;;;;;;;17.16;64.98;98949.84;4990808;28;20026;-81
2023/06/16 04:50:26;;;;;;;10.57;6.25;;;;;;;17.07;63.62;98935.38;4994524;28;20034;-81
2023/06/16 04:52:52;;;;;;;10.02;7.53;;;;;;;17.02;65.03;98938.94;4988693;28;20030;-81
2023/06/16 04:55:18;;;;;;;9.75;7.57;;;;;;;16.88;65.18;98937.22;5004183;28;20038;-81
2023/06/16 04:57:43;;;;;;;10.02;6.65;;;;;;;17.28;63.33;98942.13;5003356;28;20060;-81
2023/06/16 05:00:10;;;;;;;11.65;7.18;;;;;;;17.62;61.91;98941.97;5024775;28;20045;-82
2023/06/16 05:02:36;;;;;;;14.70;7.57;;;;;;;17.43;63.29;98939.22;5011718;28;20417;-82
2023/06/16 05:05:03;;;;;;;11.70;7.63;;;;;;;16.84;64.45;98928.09;5006489;28;20037;-81
2023/06/16 05:07:29;;;;;;;10.93;7.10;;;;;;;17.28;63.12;98934.03;5005376;28;20026;-82
2023/06/16 05:09:54;;;;;;;9.57;7.13;;;;;;;17.45;62.79;98934.31;5014836;28;20332;-82
2023/06/16 05:12:20;;;;;;;11.43;6.93;;;;;;;17.50;62.15;98944.25;5014416;28;20184;-81
2023/06/16 05:14:45;;;;;;;11.18;6.57;;;;;;;17.59;62.17;98927.16;5019984;28;20025;-81
2023/06/16 05:17:11;;;;;;;7.22;5.88;;;;;;;17.57;61.96;98928.53;5010644;28;20043;-82
2023/06/16 05:19:36;;;;;;;11.90;6.03;;;;;;;17.62;61.66;98934.69;4992522;28;20034;-82
2023/06/16 05:22:02;;;;;;;10.32;7.18;;;;;;;16.98;64.42;98931.72;5003076;28;20065;-82
2023/06/16 05:24:27;;;;;;;9.35;5.88;;;;;;;17.10;63.28;98937.50;5005876;28;20076;-82
2023/06/16 05:26:53;;;;;;;8.90;7.00;;;;;;;17.33;62.81;98933.97;5013892;28;20581;-81
2023/06/16 05:29:18;;;;;;;8.43;6.28;;;;;;;17.47;62.50;98936.75;5009456;28;20072;-81
2023/06/16 05:31:43;;;;;;;9.02;7.75;;;;;;;17.29;63.91;98935.63;5005407;28;20026;-81
2023/06/16 05:34:09;;;;;;;12.25;8.13;;;;;;;16.63;66.85;98937.47;4991602;28;20022;-81
2023/06/16 05:36:35;;;;;;;14.18;8.38;;;;;;;16.56;67.94;98953.19;5017902;28;20506;-81
2023/06/16 05:39:06;;;;;;;12.65;8.77;;;;;;;16.31;67.44;98944.25;4984626;28;20038;-81
2023/06/16 05:41:31;;;;;;;17.25;9.02;;;;;;;16.10;68.57;98950.06;5000084;28;20402;-81
2023/06/16 05:43:57;;;;;;;13.05;9.43;;;;;;;15.96;68.79;98941.03;5004857;28;20053;-81
2023/06/16 05:46:23;;;;;;;13.63;8.55;;;;;;;16.14;67.97;98943.81;5008992;28;20018;-81
2023/06/16 05:48:49;;;;;;;14.95;9.68;;;;;;;16.13;67.73;98936.84;5006603;28;20385;-81
2023/06/16 05:51:15;;;;;;;10.85;7.25;;;;;;;16.60;66.63;98940.75;5012081;28;20036;-81
2023/06/16 05:53:40;;;;;;;13.93;7.90;;;;;;;17.34;63.41;98934.78;5008086;28;20087;-82
2023/06/16 05:56:06;;;;;;;15.25;8.55;;;;;;;17.35;63.75;98945.28;5007552;28;20033;-82
2023/06/16 05:58:36;;;;;;;11.75;9.05;;;;;;;16.97;65.26;98941.69;5009589;28;20026;-82
2023/06/16 06:01:09;;;;;;;14.52;8.05;;;;;;;17.16;64.31;98944.44;5019886;28;20061;-82
2023/06/16 06:03:35;;;;;;;12.52;8.95;;;;;;;17.22;64.96;98946.78;5012671;28;20473;-82
2023/06/16 06:06:01;;;;;;;14.82;8.98;;;;;;;17.17;65.73;98956.81;4995524;28;20026;-82
2023/06/16 06:08:28;;;;;;;11.13;8.88;;;;;;;16.78;66.68;98956.19;5018318;28;20025;-82
2023/06/16 06:10:54;;;;;;;17.20;9.20;;;;;;;16.91;66.29;98947.41;5026976;28;21688;-82
2023/06/16 06:13:21;;;;;;;23.50;9.05;;;;;;;16.89;66.18;98955.00;5022859;28;20040;-82
2023/06/16 06:15:46;;;;;;;23.67;8.60;;;;;;;17.01;66.77;98958.09;5021354;28;20057;-82
2023/06/16 06:18:12;;;;;;;20.52;8.93;;;;;;;16.77;66.42;98962.69;4995458;28;20076;-82
2023/06/16 06:20:41;;;;;;;13.23;8.30;;;;;;;16.73;66.65;98961.66;4991496;28;20513;-82
2023/06/16 06:23:07;;;;;;;12.25;8.57;;;;;;;16.88;66.66;98970.41;5020723;28;20109;-83
2023/06/16 06:25:32;;;;;;;16.02;8.80;;;;;;;16.67;66.52;98960.88;5020855;28;20053;-83
2023/06/16 06:27:58;;;;;;;11.73;7.65;;;;;;;16.63;66.64;98967.94;5003472;28;20044;-83
2023/06/16 06:30:24;;;;;;;9.95;6.68;;;;;;;17.23;64.35;98969.19;5006478;28;20028;-83
2023/06/16 06:32:50;;;;;;;17.77;7.68;;;;;;;17.23;64.52;98985.38;5017694;28;20446;-82
2023/06/16 06:35:15;;;;;;;10.75;7.32;;;;;;;16.51;65.62;98991.78;5011237;28;20125;-82
2023/06/16 06:37:41;;;;;;;12.15;7.13;;;;;;;16.16;66.56;98992.03;5014670;28;20116;-82
2023/06/16 06:40:06;;;;;;;11.25;6.80;;;;;;;16.06;67.31;98984.00;5013990;28;20042;-82
2023/06/16 06:42:32;;;;;;;8.82;6.15;;;;;;;16.41;67.61;98989.94;5015141;28;20029;-82
2023/06/16 06:44:57;;;;;;;9.25;7.60;;;;;;;16.28;67.38;98993.28;5014252;28;20410;-82
2023/06/16 06:47:23;;;;;;;10.05;7.03;;;;;;;16.57;67.60;98987.13;4982198;28;20546;-82
2023/06/16 06:49:49;;;;;;;13.25;7.45;;;;;;;16.44;68.01;99002.84;5011123;28;20550;-82
2023/06/16 06:52:15;;;;;;;14.15;7.22;;;;;;;16.72;67.01;98997.78;5015476;28;20504;-82
2023/06/16 06:54:41;;;;;;;12.52;7.15;;;;;;;16.52;67.05;99000.66;4974815;28;20035;-81
2023/06/16 06:57:06;;;;;;;13.07;6.65;;;;;;;16.92;65.98;98994.88;5019439;28;20041;-82
2023/06/16 06:59:32;;;;;;;8.48;5.47;;;;;;;17.27;64.76;99007.97;5014141;28;20040;-82
2023/06/16 07:01:58;;;;;;;11.88;8.00;;;;;;;16.86;66.84;99010.28;5022261;28;20029;-82
2023/06/16 07:04:23;;;;;;;11.38;6.75;;;;;;;17.00;66.94;99019.31;5017912;28;20033;-83
2023/06/16 07:06:48;;;;;;;13.07;7.25;;;;;;;17.07;65.83;99014.41;5015901;28;20030;-82
2023/06/16 07:09:14;;;;;;;7.97;6.18;;;;;;;17.55;63.85;99001.72;5013295;28;20038;-82
2023/06/16 07:11:39;;;;;;;11.15;6.40;;;;;;;17.56;64.86;99016.03;4985679;28;20443;-82
2023/06/16 07:14:05;;;;;;;11.63;7.20;;;;;;;17.29;65.66;99002.28;5025718;28;20034;-82
2023/06/16 07:16:30;;;;;;;8.43;6.22;;;;;;;17.83;65.12;99017.00;4995692;28;20042;-83
2023/06/16 07:18:56;;;;;;;8.35;6.32;;;;;;;17.98;62.22;99005.16;5026080;28;20056;-83
2023/06/16 07:21:21;;;;;;;11.55;6.25;;;;;;;17.82;62.65;99018.06;5017486;28;20469;-83
2023/06/16 07:23:47;;;;;;;9.38;6.07;;;;;;;17.56;62.21;99006.00;5027588;28;20032;-83
2023/06/16 07:26:12;;;;;;;13.32;5.97;;;;;;;18.06;60.82;99014.50;5005362;28;20025;-83
2023/06/16 07:28:37;;;;;;;16.08;6.78;;;;;;;18.24;60.71;99019.91;4984133;28;20022;-83
2023/06/16 07:31:03;;;;;;;7.53;6.45;;;;;;;18.28;60.95;99017.41;5013772;28;20120;-83
2023/06/16 07:33:28;;;;;;;9.77;6.07;;;;;;;18.33;60.61;99015.44;5014476;28;20058;-83
2023/06/16 07:35:54;;;;;;;12.52;6.68;;;;;;;18.80;59.94;99019.00;4990664;28;20092;-83
2023/06/16 07:38:20;;;;;;;9.40;6.65;;;;;;;18.78;59.42;99011.19;5012383;28;20041;-83
2023/06/16 07:40:46;;;;;;;10.93;6.05;;;;;;;18.12;60.05;99013.34;4997895;28;20025;-82
2023/06/16 07:43:12;;;;;;;9.40;6.32;;;;;;;18.60;60.39;99018.28;5013281;28;20037;-83
2023/06/16 07:45:37;;;;;;;16.65;6.00;;;;;;;18.89;59.97;99015.34;5001094;28;20033;-83
2023/06/16 07:48:03;;;;;;;10.80;6.10;;;;;;;19.11;59.51;99011.94;5029186;28;20030;-82
2023/06/16 07:50:29;;;;;;;7.03;6.32;;;;;;;19.04;58.50;99006.94;5017246;28;20100;-82
2023/06/16 07:52:54;;;;;;;10.68;6.68;;;;;;;19.35;57.52;98997.13;5006971;28;20104;-82
2023/06/16 07:55:19;;;;;;;6.47;5.00;;;;;;;19.62;57.02;99011.75;5014275;28;20057;-82
2023/06/16 07:57:45;;;;;;;10.50;6.82;;;;;;;19.43;58.16;99003.75;4994583;28;20023;-83
2023/06/16 08:00:12;;;;;;;9.30;6.00;;;;;;;19.48;57.69;99008.25;4995264;28;20081;-82
2023/06/16 08:02:42;;;;;;;6.60;5.35;;;;;;;19.81;56.90;99007.78;5014176;28;20029;-82
2023/06/16 08:05:08;;;;;;;7.53;6.28;;;;;;;19.51;57.83;99002.22;5014381;28;20485;-82
2023/06/16 08:07:35;;;;;;;9.57;6.28;;;;;;;19.15;59.11;99005.63;4995662;28;20030;-82
2023/06/16 08:10:01;;;;;;;10.10;7.15;;;;;;;18.96;58.94;98990.59;5011273;28;20096;-82
2023/06/16 08:12:26;;;;;;;8.63;5.97;;;;;;;19.21;60.49;99000.91;5022015;28;20030;-82
2023/06/16 08:14:52;;;;;;;9.10;6.40;;;;;;;18.93;59.33;99004.72;5031091;28;20490;-83
2023/06/16 08:17:17;;;;;;;7.20;6.57;;;;;;;19.29;59.44;99006.44;5014718;28;20041;-83
2023/06/16 08:19:43;;;;;;;10.85;6.25;;;;;;;19.46;59.42;99003.16;5013222;28;20091;-83
2023/06/16 08:22:08;;;;;;;13.95;6.60;;;;;;;19.15;59.02;99000.22;5003606;28;20559;-83
2023/06/16 08:24:34;;;;;;;6.60;5.40;;;;;;;19.25;59.27;98997.31;4999268;28;20414;-83
2023/06/16 08:27:00;;;;;;;7.30;6.22;;;;;;;19.18;59.18;99001.50;5021619;28;20026;-83
2023/06/16 08:29:25;;;;;;;8.52;6.30;;;;;;;19.41;59.50;99000.53;5011709;28;20084;-83
2023/06/16 08:31:50;;;;;;;6.15;5.55;;;;;;;19.79;57.97;99001.09;4996676;28;20033;-82
2023/06/16 08:34:16;;;;;;;11.93;5.78;;;;;;;19.59;58.40;99009.66;5022546;28;20026;-82
2023/06/16 08:36:41;;;;;;;11.02;5.57;;;;;;;19.42;57.69;98994.81;5014338;28;20122;-82
2023/06/16 08:39:07;;;;;;;14.23;5.93;;;;;;;19.51;58.49;98992.19;5021283;28;20128;-82
2023/06/16 08:41:36;;;;;;;9.57;6.63;;;;;;;19.58;58.01;98987.19;5019275;28;20030;-82
2023/06/16 08:44:03;;;;;;;10.93;6.22;;;;;;;19.50;59.17;99008.75;5002637;28;20034;-82
2023/06/16 08:46:29;;;;;;;8.73;6.13;;;;;;;19.67;57.69;98998.91;5015229;28;20025;-82
2023/06/16 08:48:54;;;;;;;9.13;6.28;;;;;;;19.68;57.60;98997.78;5023333;28;20553;-82
2023/06/16 08:51:24;;;;;;;9.02;6.00;;;;;;;19.96;58.08;98990.41;5030352;28;20405;-82
2023/06/16 08:53:54;;;;;;;7.85;6.05;;;;;;;19.67;58.83;99000.81;5012738;28;20033;-82
2023/06/16 08:56:20;;;;;;;10.75;6.43;;;;;;;19.43;58.70;98993.72;5015146;28;20029;-82
2023/06/16 08:58:47;;;;;;;8.27;5.97;;;;;;;19.47;58.24;98996.63;5007000;28;20176;-82
2023/06/16 09:01:14;;;;;;;12.00;6.50;;;;;;;19.42;58.60;98986.69;5024319;28;20029;-82
2023/06/16 09:03:41;;;;;;;9.80;6.38;;;;;;;19.48;59.11;98992.03;4997106;28;20040;-82
2023/06/16 09:06:09;;;;;;;7.72;5.78;;;;;;;19.71;59.49;98985.53;5010893;28;20117;-82
2023/06/16 09:08:35;;;;;;;11.68;6.93;;;;;;;19.56;59.16;98997.53;5011721;28;20034;-82
2023/06/16 09:11:09;;;;;;;6.57;5.30;;;;;;;20.09;57.22;98997.69;4996015;28;20049;-82
2023/06/16 09:13:41;;;;;;;9.75;5.63;;;;;;;20.38;57.10;99000.81;5023000;28;20087;-82
2023/06/16 09:16:09;;;;;;;7.63;5.38;;;;;;;20.22;57.61;98993.34;5004878;28;20405;-82
2023/06/16 09:18:44;;;;;;;6.95;6.07;;;;;;;20.26;57.63;98991.63;5012385;28;20104;-82
2023/06/16 09:21:11;;;;;;;9.32;6.47;;;;;;;20.30;56.83;98982.56;5011481;28;20111;-82
2023/06/16 09:23:38;;;;;;;20.38;6.72;;;;;;;20.49;56.76;98991.31;5001397;28;20034;-81
2023/06/16 09:26:13;;;;;;;10.98;6.38;;;;;;;20.63;57.05;99000.19;5020488;28;20030;-82
2023/06/16 09:28:39;;;;;;;9.90;7.97;;;;;;;20.53;56.63;99000.44;5022213;28;20044;-82
2023/06/16 09:31:07;;;;;;;9.43;5.88;;;;;;;20.72;55.75;98992.09;5018927;28;20041;-82
2023/06/16 09:33:34;;;;;;;11.88;6.07;;;;;;;20.92;55.30;98994.28;5011456;28;20129;-82
2023/06/16 09:36:00;;;;;;;7.68;5.22;;;;;;;21.04;55.18;98988.28;5012020;28;20022;-82
2023/06/16 09:38:27;;;;;;;9.98;5.85;;;;;;;21.07;55.23;98987.66;5012537;28;20066;-83
2023/06/16 09:40:54;;;;;;;13.02;5.53;;;;;;;21.04;55.38;98982.84;5015745;28;20424;-83
2023/06/16 09:43:19;;;;;;;13.02;6.00;;;;;;;20.98;57.84;98986.78;5020501;28;20469;-82
2023/06/16 09:45:45;;;;;;;9.52;6.25;;;;;;;21.02;56.97;98985.03;5012694;28;20057;-82
2023/06/16 09:48:11;;;;;;;9.20;6.20;;;;;;;21.07;55.94;98984.94;5015014;28;20036;-82
2023/06/16 09:50:40;;;;;;;7.45;5.57;;;;;;;21.09;55.91;98982.72;5032654;28;20029;-82
2023/06/16 09:53:07;;;;;;;8.57;6.00;;;;;;;20.92;56.56;98967.91;5031312;28;20436;-83
2023/06/16 09:55:37;;;;;;;11.98;6.20;;;;;;;21.09;57.42;98966.44;5031102;28;20021;-83
2023/06/16 09:58:03;;;;;;;8.43;6.07;;;;;;;21.18;57.14;98961.84;5031254;28;20110;-83
2023/06/16 10:00:30;;;;;;;9.30;6.20;;;;;;;21.36;56.88;98963.50;5014596;28;20026;-83
2023/06/16 10:02:56;;;;;;;10.93;5.78;;;;;;;21.48;56.21;98961.75;4994323;28;20027;-83
2023/06/16 10:05:24;;;;;;;8.13;5.28;;;;;;;21.64;55.72;98968.31;4976483;28;20472;-83
2023/06/16 10:07:53;;;;;;;9.43;6.22;;;;;;;21.70;55.33;98952.69;4998668;28;20054;-83
2023/06/16 10:10:25;;;;;;;8.38;5.60;;;;;;;21.79;55.01;98945.34;5013095;28;20033;-83
2023/06/16 10:12:53;;;;;;;7.03;5.20;;;;;;;21.85;54.68;98949.53;5015653;28;20026;-83
2023/06/16 10:15:20;;;;;;;8.27;5.40;;;;;;;21.85;53.77;98946.81;5029338;28;20029;-83
2023/06/16 10:17:48;;;;;;;6.45;4.75;;;;;;;21.67;53.91;98947.88;5016576;28;20398;-83
2023/06/16 10:20:17;;;;;;;10.30;4.97;;;;;;;21.69;52.14;98936.72;5028230;28;20021;-83
2023/06/16 10:22:43;;;;;;;5.43;4.93;;;;;;;21.89;51.19;98938.81;5012792;28;20029;-83
2023/06/16 10:25:09;;;;;;;10.75;4.70;;;;;;;22.12;50.78;98938.34;4989103;28;20035;-83
2023/06/16 10:27:36;;;;;;;6.30;4.80;;;;;;;22.16;50.48;98941.19;4996988;28;20025;-83
2023/06/16 10:30:02;;;;;;;7.15;4.45;;;;;;;22.22;49.83;98931.75;5014448;28;20034;-84
2023/06/16 10:32:28;;;;;;;11.68;4.65;;;;;;;22.31;50.10;98936.06;4994468;28;20051;-83
2023/06/16 10:34:56;;;;;;;9.32;5.18;;;;;;;22.46;50.13;98942.09;5019638;28;20029;-83
2023/06/16 10:37:25;;;;;;;11.68;4.97;;;;;;;22.49;49.37;98936.81;5022791;28;20250;-83
2023/06/16 10:39:55;;;;;;;6.47;4.93;;;;;;;22.53;51.24;98929.59;5028916;28;20493;-83
2023/06/16 10:42:21;;;;;;;14.40;6.05;;;;;;;22.46;49.01;98925.78;5020898;28;20029;-82
2023/06/16 10:44:46;;;;;;;5.70;4.55;;;;;;;22.93;48.35;98919.25;4997821;28;20109;-82
2023/06/16 10:47:11;;;;;;;5.47;4.43;;;;;;;23.00;51.03;98914.06;5026167;28;20013;-82
2023/06/16 10:49:55;;;;;;;7.00;5.00;;;;;;;23.38;47.85;98920.31;5036192;28;20497;-82
2023/06/16 10:52:33;;;;;;;6.70;4.72;;;;;;;23.31;47.65;98924.63;5027371;28;20455;-83
2023/06/16 10:55:15;;;;;;;6.82;5.05;;;;;;;23.56;47.04;98913.63;5023373;28;20026;-82
2023/06/16 10:57:42;;;;;;;6.63;5.03;;;;;;;23.65;46.89;98906.19;5033912;28;20048;-82
2023/06/16 11:00:14;;;;;;;8.70;5.32;;;;;;;23.79;46.90;98909.41;5024494;28;20049;-82
2023/06/16 11:02:51;;;;;;;7.47;4.85;;;;;;;23.72;46.62;98911.09;5023347;28;20035;-82
2023/06/16 11:05:22;;;;;;;9.38;5.75;;;;;;;23.82;46.80;98905.25;5024269;28;20497;-82
2023/06/16 11:07:58;;;;;;;5.53;4.90;;;;;;;23.86;46.34;98908.88;5035348;28;20406;-82
2023/06/16 11:10:24;;;;;;;;;;;;;;;23.98;47.76;98914.41;5020127;28;20028;-82
2023/06/16 11:12:49;;;;;;;5.50;4.88;;;;;;;24.04;46.55;98907.63;5012138;28;19913;-82
2023/06/16 11:15:14;;;;;;;7.85;5.40;;;;;;;23.90;48.44;98895.38;5013212;28;20042;-82
2023/06/16 11:17:44;;;;;;;7.97;4.80;;;;;;;24.19;46.85;98903.47;5008534;28;20049;-82
2023/06/16 11:20:11;;;;;;;8.43;5.20;;;;;;;24.14;46.74;98899.03;5013085;28;20030;-82
2023/06/16 11:22:37;;;;;;;6.15;5.13;;;;;;;24.06;46.55;98891.75;5007725;28;20427;-82
2023/06/16 11:25:03;;;;;;;7.15;5.22;;;;;;;24.22;45.98;98900.09;5016759;28;20065;-82
2023/06/16 11:27:32;;;;;;;7.32;5.25;;;;;;;24.03;45.57;98889.63;4998440;28;20490;-82
2023/06/16 11:30:00;;;;;;;6.45;5.25;;;;;;;24.20;45.30;98888.72;5010381;28;20159;-82